Hyundai Dominion — A8IK7 — position and weather

sailwx.info

Track history (hours):
 
Tides and Currents Weather Stations Pressure Air Temp Water Temp Dewpoint Dewpoint Depression Visibility Wind Speed Wind Dir Waves Ship Positions

Hyundai Dominion

Last reported at 2014-Oct-30 15:33 UTC. Time now 2014-Oct-30 16:08 UTC.
Position N 01°15' E 104°01'.

Length 304 m; draft 13.1 m.

Type: Ship (hazmat cat A). MMSI: 636090990.

Date/timePositionNaut miles runAvg speedWind from/ knotsBaromVisibWave heightAir tempDewpointWater temp
2014-Oct-30 15:33N 01°15' E 104°01'1110.5
2014-Oct-30 14:31N 01°17' E 104°12'  
2014-Oct-27 01:20N 22°19' E 114°05'8 9.4
2014-Oct-27 00:30N 22°21' E 113°57'6 6.0
2014-Oct-26 23:33N 22°25' E 113°53'3 2.8
2014-Oct-26 22:33N 22°28' E 113°53'0 0.0
2014-Oct-26 06:18N 22°28' E 113°53'0 0.0
2014-Oct-26 03:06N 22°28' E 113°53'0 0.0
2014-Oct-26 01:26N 22°28' E 113°53'4 5.0
2014-Oct-26 00:33N 22°24' E 113°54'11 9.7
2014-Oct-25 23:25N 22°20' E 114°05'117 9.8
2014-Oct-25 11:27N 22°25' E 116°12'11112.2
2014-Oct-25 02:23N 23°34' E 117°46'1112.7
2014-Oct-25 01:33N 23°40' E 117°55'1313.2
2014-Oct-25 00:33N 23°47' E 118°08'1313.4
2014-Oct-24 23:33N 23°55' E 118°19'1513.7
2014-Oct-24 22:28N 24°03' E 118°33'4613.8
2014-Oct-24 19:08N 24°33' E 119°11'34214.4
2014-Oct-23 19:25N 29°26' E 122°28'1315.4
2014-Oct-23 18:33N 29°38' E 122°22'1313.3
2014-Oct-23 17:33N 29°49' E 122°14'1110.6
2014-Oct-23 16:33N 29°54' E 122°03'1 0.6
2014-Oct-23 15:32N 29°54' E 122°02'0 0.0
2014-Oct-23 14:26N 29°54' E 122°02'0 0.0
2014-Oct-23 13:26N 29°54' E 122°02'0 0.0
2014-Oct-23 12:32N 29°54' E 122°02'0 0.0
2014-Oct-23 11:32N 29°54' E 122°02'0 0.0
2014-Oct-23 10:32N 29°54' E 122°02'0 0.0
2014-Oct-23 09:32N 29°54' E 122°02'0 0.0
2014-Oct-23 08:32N 29°54' E 122°02'0 0.0
2014-Oct-23 07:29N 29°54' E 122°02'0 0.0
2014-Oct-23 06:14N 29°54' E 122°02'0 0.0
2014-Oct-23 05:20N 29°54' E 122°02'0 0.0
2014-Oct-23 04:32N 29°54' E 122°02'0 0.0
2014-Oct-23 03:26N 29°54' E 122°02'0 0.0
2014-Oct-23 02:32N 29°54' E 122°02'0 0.0
2014-Oct-23 01:14N 29°54' E 122°02'0 0.0
2014-Oct-23 00:17N 29°54' E 122°02'0 0.0
2014-Oct-22 23:23N 29°54' E 122°02'0 0.0
2014-Oct-22 22:33N 29°54' E 122°02'2 1.7
2014-Oct-22 21:33N 29°55' E 122°04'3 3.2
2014-Oct-22 20:34N 29°56' E 122°07'1111.1
2014-Oct-22 19:33N 29°48' E 122°16'9 8.8
2014-Oct-22 18:33N 29°45' E 122°25'0 0.1
2014-Oct-22 17:31N 29°45' E 122°25'0 0.1
2014-Oct-22 16:31N 29°45' E 122°25'0 0.0
2014-Oct-22 15:24N 29°45' E 122°25'0 0.1
2014-Oct-22 14:31N 29°45' E 122°25'0 0.1
2014-Oct-22 13:31N 29°45' E 122°25'0 0.1
2014-Oct-22 12:25N 29°45' E 122°25'0 0.0
2014-Oct-22 11:24N 29°45' E 122°25'0 0.1
2014-Oct-22 10:26N 29°45' E 122°25'4 4.3
2014-Oct-22 09:33N 29°45' E 122°29'1715.4
2014-Oct-22 08:28N 29°56' E 122°44'1715.4
2014-Oct-22 07:23N 30°12' E 122°49'1214.5
2014-Oct-22 06:32N 30°24' E 122°44'1414.5
2014-Oct-22 05:33N 30°31' E 122°30'1413.8
2014-Oct-22 04:33N 30°33' E 122°14'9 7.5
2014-Oct-22 03:20N 30°37' E 122°04'3 0.1
2014-Oct-21 02:33N 30°35' E 122°07'1211.9
2014-Oct-21 01:33N 30°33' E 122°20'1616.4
2014-Oct-21 00:33N 30°28' E 122°38'1 0.2
2014-Oct-20 20:06N 30°27' E 122°38'0 0.1
2014-Oct-20 19:12N 30°27' E 122°39'0 0.1
2014-Oct-20 18:18N 30°27' E 122°39'0 0.1
2014-Oct-20 17:24N 30°28' E 122°39'0 0.0
2014-Oct-20 16:12N 30°28' E 122°39'  
Track history (hours):
 
Tides and Currents Weather Stations Pressure Air Temp Water Temp Dewpoint Dewpoint Depression Visibility Wind Speed Wind Dir Waves Ship Positions

Hyundai Dominion

Last reported at 2014-Oct-30 15:33 UTC. Time now 2014-Oct-30 16:08 UTC.
Position N 01°15' E 104°01'.

Length 304 m; draft 13.1 m.

Type: Ship (hazmat cat A). MMSI: 636090990.

Date/timePositionNaut miles runAvg speedWind from/ knotsBaromVisibWave heightAir tempDewpointWater temp
2014-Oct-30 15:33N 01°15' E 104°01'1110.5
2014-Oct-30 14:31N 01°17' E 104°12'  
2014-Oct-27 01:20N 22°19' E 114°05'8 9.4
2014-Oct-27 00:30N 22°21' E 113°57'6 6.0
2014-Oct-26 23:33N 22°25' E 113°53'3 2.8
2014-Oct-26 22:33N 22°28' E 113°53'0 0.0
2014-Oct-26 06:18N 22°28' E 113°53'0 0.0
2014-Oct-26 03:06N 22°28' E 113°53'0 0.0
2014-Oct-26 01:26N 22°28' E 113°53'4 5.0
2014-Oct-26 00:33N 22°24' E 113°54'11 9.7
2014-Oct-25 23:25N 22°20' E 114°05'117 9.8
2014-Oct-25 11:27N 22°25' E 116°12'11112.2
2014-Oct-25 02:23N 23°34' E 117°46'1112.7
2014-Oct-25 01:33N 23°40' E 117°55'1313.2
2014-Oct-25 00:33N 23°47' E 118°08'1313.4
2014-Oct-24 23:33N 23°55' E 118°19'1513.7
2014-Oct-24 22:28N 24°03' E 118°33'4613.8
2014-Oct-24 19:08N 24°33' E 119°11'34214.4
2014-Oct-23 19:25N 29°26' E 122°28'1315.4
2014-Oct-23 18:33N 29°38' E 122°22'1313.3
2014-Oct-23 17:33N 29°49' E 122°14'1110.6
2014-Oct-23 16:33N 29°54' E 122°03'1 0.6
2014-Oct-23 15:32N 29°54' E 122°02'0 0.0
2014-Oct-23 14:26N 29°54' E 122°02'0 0.0
2014-Oct-23 13:26N 29°54' E 122°02'0 0.0
2014-Oct-23 12:32N 29°54' E 122°02'0 0.0
2014-Oct-23 11:32N 29°54' E 122°02'0 0.0
2014-Oct-23 10:32N 29°54' E 122°02'0 0.0
2014-Oct-23 09:32N 29°54' E 122°02'0 0.0
2014-Oct-23 08:32N 29°54' E 122°02'0 0.0
2014-Oct-23 07:29N 29°54' E 122°02'0 0.0
2014-Oct-23 06:14N 29°54' E 122°02'0 0.0
2014-Oct-23 05:20N 29°54' E 122°02'0 0.0
2014-Oct-23 04:32N 29°54' E 122°02'0 0.0
2014-Oct-23 03:26N 29°54' E 122°02'0 0.0
2014-Oct-23 02:32N 29°54' E 122°02'0 0.0
2014-Oct-23 01:14N 29°54' E 122°02'0 0.0
2014-Oct-23 00:17N 29°54' E 122°02'0 0.0
2014-Oct-22 23:23N 29°54' E 122°02'0 0.0
2014-Oct-22 22:33N 29°54' E 122°02'2 1.7
2014-Oct-22 21:33N 29°55' E 122°04'3 3.2
2014-Oct-22 20:34N 29°56' E 122°07'1111.1
2014-Oct-22 19:33N 29°48' E 122°16'9 8.8
2014-Oct-22 18:33N 29°45' E 122°25'0 0.1
2014-Oct-22 17:31N 29°45' E 122°25'0 0.1
2014-Oct-22 16:31N 29°45' E 122°25'0 0.0
2014-Oct-22 15:24N 29°45' E 122°25'0 0.1
2014-Oct-22 14:31N 29°45' E 122°25'0 0.1
2014-Oct-22 13:31N 29°45' E 122°25'0 0.1
2014-Oct-22 12:25N 29°45' E 122°25'0 0.0
2014-Oct-22 11:24N 29°45' E 122°25'0 0.1
2014-Oct-22 10:26N 29°45' E 122°25'4 4.3
2014-Oct-22 09:33N 29°45' E 122°29'1715.4
2014-Oct-22 08:28N 29°56' E 122°44'1715.4
2014-Oct-22 07:23N 30°12' E 122°49'1214.5
2014-Oct-22 06:32N 30°24' E 122°44'1414.5
2014-Oct-22 05:33N 30°31' E 122°30'1413.8
2014-Oct-22 04:33N 30°33' E 122°14'9 7.5
2014-Oct-22 03:20N 30°37' E 122°04'3 0.1
2014-Oct-21 02:33N 30°35' E 122°07'1211.9
2014-Oct-21 01:33N 30°33' E 122°20'1616.4
2014-Oct-21 00:33N 30°28' E 122°38'1 0.2
2014-Oct-20 20:06N 30°27' E 122°38'0 0.1
2014-Oct-20 19:12N 30°27' E 122°39'0 0.1
2014-Oct-20 18:18N 30°27' E 122°39'0 0.1
2014-Oct-20 17:24N 30°28' E 122°39'0 0.0
2014-Oct-20 16:12N 30°28' E 122°39'  

Dump ship's entire track history